sensor_id;sensor_type;location;lat;lon;timestamp;temperature;humidity
18047;DHT22;9148;51.454;13.862;2023-09-12T00:01:33;17.00;97.10
18047;DHT22;9148;51.454;13.862;2023-09-12T00:03:59;17.00;97.30
18047;DHT22;9148;51.454;13.862;2023-09-12T00:06:24;17.00;97.50
18047;DHT22;9148;51.454;13.862;2023-09-12T00:08:51;16.90;97.60
18047;DHT22;9148;51.454;13.862;2023-09-12T00:11:17;16.90;97.70
18047;DHT22;9148;51.454;13.862;2023-09-12T00:13:43;16.90;97.80
18047;DHT22;9148;51.454;13.862;2023-09-12T00:16:09;16.90;98.00
18047;DHT22;9148;51.454;13.862;2023-09-12T00:18:39;16.80;98.10
18047;DHT22;9148;51.454;13.862;2023-09-12T00:21:05;16.80;98.10
18047;DHT22;9148;51.454;13.862;2023-09-12T00:23:31;16.80;98.30
18047;DHT22;9148;51.454;13.862;2023-09-12T00:25:57;16.70;98.40
18047;DHT22;9148;51.454;13.862;2023-09-12T00:28:23;16.70;98.90
18047;DHT22;9148;51.454;13.862;2023-09-12T00:30:49;16.60;98.70
18047;DHT22;9148;51.454;13.862;2023-09-12T00:33:15;16.60;98.90
18047;DHT22;9148;51.454;13.862;2023-09-12T00:35:40;16.60;99.00
18047;DHT22;9148;51.454;13.862;2023-09-12T00:38:08;16.50;99.10
18047;DHT22;9148;51.454;13.862;2023-09-12T00:40:34;16.50;99.30
18047;DHT22;9148;51.454;13.862;2023-09-12T00:42:59;16.50;99.40
18047;DHT22;9148;51.454;13.862;2023-09-12T00:45:25;16.50;99.50
18047;DHT22;9148;51.454;13.862;2023-09-12T00:47:52;16.40;99.60
18047;DHT22;9148;51.454;13.862;2023-09-12T00:50:19;16.40;99.80
18047;DHT22;9148;51.454;13.862;2023-09-12T00:52:46;16.40;99.90
18047;DHT22;9148;51.454;13.862;2023-09-12T00:55:13;16.30;99.90
18047;DHT22;9148;51.454;13.862;2023-09-12T00:57:48;16.20;99.90
18047;DHT22;9148;51.454;13.862;2023-09-12T01:00:15;16.20;99.90
18047;DHT22;9148;51.454;13.862;2023-09-12T01:02:42;16.10;99.90
18047;DHT22;9148;51.454;13.862;2023-09-12T01:05:08;16.10;99.90
18047;DHT22;9148;51.454;13.862;2023-09-12T01:07:38;16.10;99.90
18047;DHT22;9148;51.454;13.862;2023-09-12T01:10:07;16.10;99.90
18047;DHT22;9148;51.454;13.862;2023-09-12T01:12:33;16.10;99.90
18047;DHT22;9148;51.454;13.862;2023-09-12T01:14:59;16.00;99.90
18047;DHT22;9148;51.454;13.862;2023-09-12T01:17:26;16.00;99.90
18047;DHT22;9148;51.454;13.862;2023-09-12T01:19:52;16.00;99.90
18047;DHT22;9148;51.454;13.862;2023-09-12T01:25:42;15.90;99.90
18047;DHT22;9148;51.454;13.862;2023-09-12T01:28:30;15.90;99.90
18047;DHT22;9148;51.454;13.862;2023-09-12T01:31:01;15.80;99.90
18047;DHT22;9148;51.454;13.862;2023-09-12T01:33:28;15.70;99.90
18047;DHT22;9148;51.454;13.862;2023-09-12T01:35:54;15.60;99.90
18047;DHT22;9148;51.454;13.862;2023-09-12T01:38:21;15.60;99.90
18047;DHT22;9148;51.454;13.862;2023-09-12T01:40:49;15.50;99.90
18047;DHT22;9148;51.454;13.862;2023-09-12T01:43:17;15.50;99.90
18047;DHT22;9148;51.454;13.862;2023-09-12T01:45:45;15.50;99.90
18047;DHT22;9148;51.454;13.862;2023-09-12T01:48:13;15.40;99.90
18047;DHT22;9148;51.454;13.862;2023-09-12T01:50:45;15.40;99.90
18047;DHT22;9148;51.454;13.862;2023-09-12T01:53:11;15.40;99.90
18047;DHT22;9148;51.454;13.862;2023-09-12T01:55:37;15.30;99.90
18047;DHT22;9148;51.454;13.862;2023-09-12T01:58:03;15.30;99.90
18047;DHT22;9148;51.454;13.862;2023-09-12T02:00:29;15.30;99.90
18047;DHT22;9148;51.454;13.862;2023-09-12T02:02:55;15.30;99.90
18047;DHT22;9148;51.454;13.862;2023-09-12T02:05:22;15.20;99.90
18047;DHT22;9148;51.454;13.862;2023-09-12T02:07:48;15.20;99.90
18047;DHT22;9148;51.454;13.862;2023-09-12T02:10:15;15.20;99.90
18047;DHT22;9148;51.454;13.862;2023-09-12T02:12:41;15.20;99.90
18047;DHT22;9148;51.454;13.862;2023-09-12T02:15:07;15.10;99.90
18047;DHT22;9148;51.454;13.862;2023-09-12T02:17:33;15.10;99.90
18047;DHT22;9148;51.454;13.862;2023-09-12T02:19:59;15.10;99.90
18047;DHT22;9148;51.454;13.862;2023-09-12T02:22:25;15.10;99.90
18047;DHT22;9148;51.454;13.862;2023-09-12T02:24:50;15.10;99.90
18047;DHT22;9148;51.454;13.862;2023-09-12T02:27:16;15.00;99.90
18047;DHT22;9148;51.454;13.862;2023-09-12T02:29:42;15.00;99.90
18047;DHT22;9148;51.454;13.862;2023-09-12T02:32:09;15.00;99.90
18047;DHT22;9148;51.454;13.862;2023-09-12T02:34:34;14.90;99.90
18047;DHT22;9148;51.454;13.862;2023-09-12T02:37:00;14.90;99.90
18047;DHT22;9148;51.454;13.862;2023-09-12T02:39:26;14.90;99.90
18047;DHT22;9148;51.454;13.862;2023-09-12T02:41:52;14.90;99.90
18047;DHT22;9148;51.454;13.862;2023-09-12T02:44:17;14.90;99.90
18047;DHT22;9148;51.454;13.862;2023-09-12T02:46:43;14.80;99.90
18047;DHT22;9148;51.454;13.862;2023-09-12T02:49:09;14.80;99.90
18047;DHT22;9148;51.454;13.862;2023-09-12T02:51:38;14.80;99.90
18047;DHT22;9148;51.454;13.862;2023-09-12T02:54:04;14.80;99.90
18047;DHT22;9148;51.454;13.862;2023-09-12T02:56:29;14.80;99.90
18047;DHT22;9148;51.454;13.862;2023-09-12T02:58:56;14.70;99.90
18047;DHT22;9148;51.454;13.862;2023-09-12T03:01:22;14.70;99.90
18047;DHT22;9148;51.454;13.862;2023-09-12T03:03:50;14.70;99.90
18047;DHT22;9148;51.454;13.862;2023-09-12T03:06:16;14.70;99.90
18047;DHT22;9148;51.454;13.862;2023-09-12T03:08:43;14.60;99.90
18047;DHT22;9148;51.454;13.862;2023-09-12T03:11:09;14.60;99.90
18047;DHT22;9148;51.454;13.862;2023-09-12T03:13:37;14.60;99.90
18047;DHT22;9148;51.454;13.862;2023-09-12T03:16:04;14.50;99.90
18047;DHT22;9148;51.454;13.862;2023-09-12T03:18:30;14.50;99.90
18047;DHT22;9148;51.454;13.862;2023-09-12T03:20:56;14.40;99.90
18047;DHT22;9148;51.454;13.862;2023-09-12T03:23:21;14.40;99.90
18047;DHT22;9148;51.454;13.862;2023-09-12T03:25:47;14.40;99.90
18047;DHT22;9148;51.454;13.862;2023-09-12T03:28:13;14.40;99.90
18047;DHT22;9148;51.454;13.862;2023-09-12T03:30:39;14.30;99.90
18047;DHT22;9148;51.454;13.862;2023-09-12T03:33:05;14.30;99.90
18047;DHT22;9148;51.454;13.862;2023-09-12T03:35:32;14.30;99.90
18047;DHT22;9148;51.454;13.862;2023-09-12T03:37:58;14.30;99.90
18047;DHT22;9148;51.454;13.862;2023-09-12T03:40:24;14.30;99.90
18047;DHT22;9148;51.454;13.862;2023-09-12T03:42:49;14.20;99.90
18047;DHT22;9148;51.454;13.862;2023-09-12T03:45:15;14.20;99.90
18047;DHT22;9148;51.454;13.862;2023-09-12T03:47:41;14.20;99.90
18047;DHT22;9148;51.454;13.862;2023-09-12T03:50:07;14.20;99.90
18047;DHT22;9148;51.454;13.862;2023-09-12T03:52:33;14.20;99.90
18047;DHT22;9148;51.454;13.862;2023-09-12T03:54:59;14.20;99.90
18047;DHT22;9148;51.454;13.862;2023-09-12T03:57:26;14.20;99.90
18047;DHT22;9148;51.454;13.862;2023-09-12T03:59:52;14.20;99.90
18047;DHT22;9148;51.454;13.862;2023-09-12T04:02:18;14.20;99.90
18047;DHT22;9148;51.454;13.862;2023-09-12T04:04:44;14.10;99.90
18047;DHT22;9148;51.454;13.862;2023-09-12T04:07:09;14.10;99.90
18047;DHT22;9148;51.454;13.862;2023-09-12T04:09:35;14.10;99.90
18047;DHT22;9148;51.454;13.862;2023-09-12T04:12:01;14.00;99.90
18047;DHT22;9148;51.454;13.862;2023-09-12T04:14:26;14.00;99.90
18047;DHT22;9148;51.454;13.862;2023-09-12T04:16:52;14.00;99.90
18047;DHT22;9148;51.454;13.862;2023-09-12T04:19:18;14.00;99.90
18047;DHT22;9148;51.454;13.862;2023-09-12T04:21:43;13.90;99.90
18047;DHT22;9148;51.454;13.862;2023-09-12T04:24:09;13.90;99.90
18047;DHT22;9148;51.454;13.862;2023-09-12T04:26:35;14.40;99.90
18047;DHT22;9148;51.454;13.862;2023-09-12T04:29:00;13.80;99.90
18047;DHT22;9148;51.454;13.862;2023-09-12T04:31:26;13.80;99.90
18047;DHT22;9148;51.454;13.862;2023-09-12T04:33:52;13.80;99.90
18047;DHT22;9148;51.454;13.862;2023-09-12T04:36:19;13.80;99.90
18047;DHT22;9148;51.454;13.862;2023-09-12T04:38:44;13.80;99.90
18047;DHT22;9148;51.454;13.862;2023-09-12T04:41:12;13.80;99.90
18047;DHT22;9148;51.454;13.862;2023-09-12T04:43:42;13.80;99.90
18047;DHT22;9148;51.454;13.862;2023-09-12T04:46:09;13.80;99.90
18047;DHT22;9148;51.454;13.862;2023-09-12T04:48:35;13.80;99.90
18047;DHT22;9148;51.454;13.862;2023-09-12T04:51:01;13.80;99.90
18047;DHT22;9148;51.454;13.862;2023-09-12T04:53:27;13.80;99.90
18047;DHT22;9148;51.454;13.862;2023-09-12T04:55:59;13.80;99.90
18047;DHT22;9148;51.454;13.862;2023-09-12T04:58:24;13.80;99.90
18047;DHT22;9148;51.454;13.862;2023-09-12T05:00:50;13.80;99.90
18047;DHT22;9148;51.454;13.862;2023-09-12T05:03:16;13.80;99.90
18047;DHT22;9148;51.454;13.862;2023-09-12T05:05:41;13.80;99.90
18047;DHT22;9148;51.454;13.862;2023-09-12T05:08:07;13.90;99.90
18047;DHT22;9148;51.454;13.862;2023-09-12T05:10:33;13.90;99.90
18047;DHT22;9148;51.454;13.862;2023-09-12T05:12:58;14.00;99.90
18047;DHT22;9148;51.454;13.862;2023-09-12T05:15:24;14.10;99.90
18047;DHT22;9148;51.454;13.862;2023-09-12T05:17:50;14.10;99.90
18047;DHT22;9148;51.454;13.862;2023-09-12T05:20:15;14.20;99.90
18047;DHT22;9148;51.454;13.862;2023-09-12T05:22:41;14.30;99.90
18047;DHT22;9148;51.454;13.862;2023-09-12T05:25:07;14.40;99.90
18047;DHT22;9148;51.454;13.862;2023-09-12T05:27:33;14.50;99.90
18047;DHT22;9148;51.454;13.862;2023-09-12T05:30:01;14.60;99.90
18047;DHT22;9148;51.454;13.862;2023-09-12T05:32:28;14.70;99.90
18047;DHT22;9148;51.454;13.862;2023-09-12T05:34:54;14.80;99.90
18047;DHT22;9148;51.454;13.862;2023-09-12T05:37:19;14.90;99.90
18047;DHT22;9148;51.454;13.862;2023-09-12T05:39:46;15.00;99.90
18047;DHT22;9148;51.454;13.862;2023-09-12T05:42:12;15.10;99.90
18047;DHT22;9148;51.454;13.862;2023-09-12T05:44:37;15.20;99.90
18047;DHT22;9148;51.454;13.862;2023-09-12T05:47:03;15.30;99.90
18047;DHT22;9148;51.454;13.862;2023-09-12T05:49:29;15.50;99.90
18047;DHT22;9148;51.454;13.862;2023-09-12T05:51:56;15.60;99.90
18047;DHT22;9148;51.454;13.862;2023-09-12T05:54:22;15.70;99.90
18047;DHT22;9148;51.454;13.862;2023-09-12T05:56:48;15.90;99.90
18047;DHT22;9148;51.454;13.862;2023-09-12T05:59:14;16.00;99.90
18047;DHT22;9148;51.454;13.862;2023-09-12T06:01:39;16.20;99.90
18047;DHT22;9148;51.454;13.862;2023-09-12T06:04:06;16.40;99.90
18047;DHT22;9148;51.454;13.862;2023-09-12T06:06:31;16.60;99.90
18047;DHT22;9148;51.454;13.862;2023-09-12T06:08:57;16.80;99.90
18047;DHT22;9148;51.454;13.862;2023-09-12T06:11:23;17.00;99.90
18047;DHT22;9148;51.454;13.862;2023-09-12T06:13:49;17.20;99.90
18047;DHT22;9148;51.454;13.862;2023-09-12T06:16:15;17.50;99.90
18047;DHT22;9148;51.454;13.862;2023-09-12T06:18:40;17.70;99.90
18047;DHT22;9148;51.454;13.862;2023-09-12T06:21:06;17.80;99.90
18047;DHT22;9148;51.454;13.862;2023-09-12T06:23:34;18.00;99.90
18047;DHT22;9148;51.454;13.862;2023-09-12T06:26:00;18.20;99.90
18047;DHT22;9148;51.454;13.862;2023-09-12T06:28:30;18.30;99.90
18047;DHT22;9148;51.454;13.862;2023-09-12T06:30:57;18.50;99.90
18047;DHT22;9148;51.454;13.862;2023-09-12T06:33:24;18.70;99.90
18047;DHT22;9148;51.454;13.862;2023-09-12T06:35:50;18.80;99.90
18047;DHT22;9148;51.454;13.862;2023-09-12T06:38:18;19.00;99.90
18047;DHT22;9148;51.454;13.862;2023-09-12T06:40:45;19.20;99.90
18047;DHT22;9148;51.454;13.862;2023-09-12T06:43:12;19.40;99.90
18047;DHT22;9148;51.454;13.862;2023-09-12T06:45:45;19.70;99.90
18047;DHT22;9148;51.454;13.862;2023-09-12T06:48:11;20.00;99.90
18047;DHT22;9148;51.454;13.862;2023-09-12T06:50:37;20.30;99.90
18047;DHT22;9148;51.454;13.862;2023-09-12T06:53:04;20.60;99.90
18047;DHT22;9148;51.454;13.862;2023-09-12T06:55:32;20.90;99.90
18047;DHT22;9148;51.454;13.862;2023-09-12T06:57:57;21.20;99.90
18047;DHT22;9148;51.454;13.862;2023-09-12T07:00:23;21.50;99.90
18047;DHT22;9148;51.454;13.862;2023-09-12T07:02:49;21.80;99.90
18047;DHT22;9148;51.454;13.862;2023-09-12T07:05:15;22.10;99.70
18047;DHT22;9148;51.454;13.862;2023-09-12T07:07:41;22.40;99.30
18047;DHT22;9148;51.454;13.862;2023-09-12T07:10:06;22.80;98.70
18047;DHT22;9148;51.454;13.862;2023-09-12T07:12:32;23.10;98.20
18047;DHT22;9148;51.454;13.862;2023-09-12T07:14:59;23.50;97.50
18047;DHT22;9148;51.454;13.862;2023-09-12T07:17:27;23.90;96.80
18047;DHT22;9148;51.454;13.862;2023-09-12T07:19:53;24.20;96.00
18047;DHT22;9148;51.454;13.862;2023-09-12T07:22:19;24.40;94.80
18047;DHT22;9148;51.454;13.862;2023-09-12T07:24:45;24.70;94.10
18047;DHT22;9148;51.454;13.862;2023-09-12T07:27:10;24.90;93.40
18047;DHT22;9148;51.454;13.862;2023-09-12T07:29:38;25.10;92.50
18047;DHT22;9148;51.454;13.862;2023-09-12T07:32:04;25.30;91.90
18047;DHT22;9148;51.454;13.862;2023-09-12T07:34:30;25.50;91.20
18047;DHT22;9148;51.454;13.862;2023-09-12T07:36:55;25.70;90.90
18047;DHT22;9148;51.454;13.862;2023-09-12T07:39:21;26.00;90.40
18047;DHT22;9148;51.454;13.862;2023-09-12T07:41:47;26.30;88.90
18047;DHT22;9148;51.454;13.862;2023-09-12T07:44:12;26.40;85.60
18047;DHT22;9148;51.454;13.862;2023-09-12T07:46:40;26.50;85.30
18047;DHT22;9148;51.454;13.862;2023-09-12T07:49:06;26.70;85.20
18047;DHT22;9148;51.454;13.862;2023-09-12T07:51:34;27.00;84.30
18047;DHT22;9148;51.454;13.862;2023-09-12T07:54:01;27.30;82.90
18047;DHT22;9148;51.454;13.862;2023-09-12T07:56:27;27.50;80.90
18047;DHT22;9148;51.454;13.862;2023-09-12T07:58:53;27.70;79.30
18047;DHT22;9148;51.454;13.862;2023-09-12T08:01:18;27.90;77.00
18047;DHT22;9148;51.454;13.862;2023-09-12T08:03:44;28.20;75.70
18047;DHT22;9148;51.454;13.862;2023-09-12T08:06:10;28.40;74.30
18047;DHT22;9148;51.454;13.862;2023-09-12T08:08:36;28.70;72.80
18047;DHT22;9148;51.454;13.862;2023-09-12T08:11:01;29.00;71.50
18047;DHT22;9148;51.454;13.862;2023-09-12T08:13:28;29.30;69.80
18047;DHT22;9148;51.454;13.862;2023-09-12T08:15:55;29.50;67.70
18047;DHT22;9148;51.454;13.862;2023-09-12T08:18:21;29.60;66.50
18047;DHT22;9148;51.454;13.862;2023-09-12T08:20:47;29.70;65.30
18047;DHT22;9148;51.454;13.862;2023-09-12T08:23:12;29.90;64.50
18047;DHT22;9148;51.454;13.862;2023-09-12T08:25:39;30.10;63.30
18047;DHT22;9148;51.454;13.862;2023-09-12T08:28:05;30.30;61.90
18047;DHT22;9148;51.454;13.862;2023-09-12T08:30:31;30.40;60.40
18047;DHT22;9148;51.454;13.862;2023-09-12T08:32:58;30.60;59.90
18047;DHT22;9148;51.454;13.862;2023-09-12T08:35:24;30.70;59.00
18047;DHT22;9148;51.454;13.862;2023-09-12T08:37:51;30.80;58.10
18047;DHT22;9148;51.454;13.862;2023-09-12T08:40:17;30.90;57.90
18047;DHT22;9148;51.454;13.862;2023-09-12T08:42:44;31.10;57.40
18047;DHT22;9148;51.454;13.862;2023-09-12T08:45:14;31.40;57.70
18047;DHT22;9148;51.454;13.862;2023-09-12T08:47:43;31.60;56.20
18047;DHT22;9148;51.454;13.862;2023-09-12T08:50:11;31.80;54.50
18047;DHT22;9148;51.454;13.862;2023-09-12T08:52:43;31.90;54.30
18047;DHT22;9148;51.454;13.862;2023-09-12T08:55:10;32.00;54.30
18047;DHT22;9148;51.454;13.862;2023-09-12T08:57:38;32.20;53.80
18047;DHT22;9148;51.454;13.862;2023-09-12T09:00:06;32.40;53.40
18047;DHT22;9148;51.454;13.862;2023-09-12T09:02:39;32.70;52.20
18047;DHT22;9148;51.454;13.862;2023-09-12T09:05:10;32.90;51.70
18047;DHT22;9148;51.454;13.862;2023-09-12T09:07:40;33.00;51.30
18047;DHT22;9148;51.454;13.862;2023-09-12T09:10:14;33.10;50.60
18047;DHT22;9148;51.454;13.862;2023-09-12T09:12:45;33.20;50.20
18047;DHT22;9148;51.454;13.862;2023-09-12T09:15:21;33.30;50.10
18047;DHT22;9148;51.454;13.862;2023-09-12T09:17:48;33.50;50.00
18047;DHT22;9148;51.454;13.862;2023-09-12T09:20:29;33.70;49.70
18047;DHT22;9148;51.454;13.862;2023-09-12T09:22:57;34.00;49.10
18047;DHT22;9148;51.454;13.862;2023-09-12T09:25:24;34.20;49.40
18047;DHT22;9148;51.454;13.862;2023-09-12T09:27:49;34.40;47.80
18047;DHT22;9148;51.454;13.862;2023-09-12T09:30:15;34.60;47.00
18047;DHT22;9148;51.454;13.862;2023-09-12T09:32:41;34.70;46.60
18047;DHT22;9148;51.454;13.862;2023-09-12T09:35:07;34.90;46.30
18047;DHT22;9148;51.454;13.862;2023-09-12T09:37:33;35.20;45.70
18047;DHT22;9148;51.454;13.862;2023-09-12T09:39:59;35.40;45.30
18047;DHT22;9148;51.454;13.862;2023-09-12T09:42:28;36.10;44.80
18047;DHT22;9148;51.454;13.862;2023-09-12T09:44:54;36.00;44.30
18047;DHT22;9148;51.454;13.862;2023-09-12T09:47:20;36.30;43.60
18047;DHT22;9148;51.454;13.862;2023-09-12T09:49:45;36.70;43.00
18047;DHT22;9148;51.454;13.862;2023-09-12T09:52:12;36.90;42.40
18047;DHT22;9148;51.454;13.862;2023-09-12T09:54:43;37.00;41.80
18047;DHT22;9148;51.454;13.862;2023-09-12T09:57:10;37.30;41.30
18047;DHT22;9148;51.454;13.862;2023-09-12T09:59:36;37.40;40.90
18047;DHT22;9148;51.454;13.862;2023-09-12T10:02:03;37.50;40.70
18047;DHT22;9148;51.454;13.862;2023-09-12T10:04:32;37.70;40.30
18047;DHT22;9148;51.454;13.862;2023-09-12T10:06:59;37.80;40.10
18047;DHT22;9148;51.454;13.862;2023-09-12T10:09:29;38.00;39.90
18047;DHT22;9148;51.454;13.862;2023-09-12T10:11:57;38.20;39.20
18047;DHT22;9148;51.454;13.862;2023-09-12T10:14:25;38.40;38.80
18047;DHT22;9148;51.454;13.862;2023-09-12T10:17:02;38.50;38.50
18047;DHT22;9148;51.454;13.862;2023-09-12T10:19:38;38.50;38.00
18047;DHT22;9148;51.454;13.862;2023-09-12T10:24:46;38.50;37.50
18047;DHT22;9148;51.454;13.862;2023-09-12T10:27:14;38.50;37.90
18047;DHT22;9148;51.454;13.862;2023-09-12T10:29:40;38.60;37.00
18047;DHT22;9148;51.454;13.862;2023-09-12T10:32:06;38.70;36.60
18047;DHT22;9148;51.454;13.862;2023-09-12T10:34:34;38.80;36.20
18047;DHT22;9148;51.454;13.862;2023-09-12T10:37:01;38.90;35.90
18047;DHT22;9148;51.454;13.862;2023-09-12T10:39:32;39.10;35.70
18047;DHT22;9148;51.454;13.862;2023-09-12T10:41:59;39.20;35.40
18047;DHT22;9148;51.454;13.862;2023-09-12T10:44:30;39.30;35.00
18047;DHT22;9148;51.454;13.862;2023-09-12T10:46:57;39.30;34.90
18047;DHT22;9148;51.454;13.862;2023-09-12T10:49:23;39.30;34.60
18047;DHT22;9148;51.454;13.862;2023-09-12T10:51:51;39.30;34.30
18047;DHT22;9148;51.454;13.862;2023-09-12T10:54:36;39.30;33.90
18047;DHT22;9148;51.454;13.862;2023-09-12T10:57:10;39.40;33.90
18047;DHT22;9148;51.454;13.862;2023-09-12T11:02:31;39.70;33.40
18047;DHT22;9148;51.454;13.862;2023-09-12T11:05:03;39.80;32.60
18047;DHT22;9148;51.454;13.862;2023-09-12T11:12:45;40.00;31.90
18047;DHT22;9148;51.454;13.862;2023-09-12T11:15:11;40.20;31.90
18047;DHT22;9148;51.454;13.862;2023-09-12T11:17:41;40.40;31.70
18047;DHT22;9148;51.454;13.862;2023-09-12T11:20:09;40.40;31.30
18047;DHT22;9148;51.454;13.862;2023-09-12T11:22:43;40.50;31.30
18047;DHT22;9148;51.454;13.862;2023-09-12T11:25:24;40.60;31.20
18047;DHT22;9148;51.454;13.862;2023-09-12T11:30:22;40.70;30.80
18047;DHT22;9148;51.454;13.862;2023-09-12T11:32:52;40.60;30.60
18047;DHT22;9148;51.454;13.862;2023-09-12T11:35:29;40.60;30.90
18047;DHT22;9148;51.454;13.862;2023-09-12T11:37:59;40.30;30.70
18047;DHT22;9148;51.454;13.862;2023-09-12T11:40:41;40.30;31.00
18047;DHT22;9148;51.454;13.862;2023-09-12T11:43:25;40.30;31.10
18047;DHT22;9148;51.454;13.862;2023-09-12T11:45:54;40.40;31.20
18047;DHT22;9148;51.454;13.862;2023-09-12T11:48:20;40.60;31.10
18047;DHT22;9148;51.454;13.862;2023-09-12T11:50:54;40.60;31.00
18047;DHT22;9148;51.454;13.862;2023-09-12T11:53:23;40.60;30.80
18047;DHT22;9148;51.454;13.862;2023-09-12T11:55:56;40.60;30.70
18047;DHT22;9148;51.454;13.862;2023-09-12T11:58:24;40.60;30.60
18047;DHT22;9148;51.454;13.862;2023-09-12T12:00:52;40.60;30.50
18047;DHT22;9148;51.454;13.862;2023-09-12T12:03:21;40.70;30.70
18047;DHT22;9148;51.454;13.862;2023-09-12T12:05:48;40.90;30.60
18047;DHT22;9148;51.454;13.862;2023-09-12T12:08:15;40.80;30.30
18047;DHT22;9148;51.454;13.862;2023-09-12T12:10:41;40.70;30.30
18047;DHT22;9148;51.454;13.862;2023-09-12T12:13:11;40.60;30.50
18047;DHT22;9148;51.454;13.862;2023-09-12T12:15:38;40.60;30.50
18047;DHT22;9148;51.454;13.862;2023-09-12T12:18:04;40.70;30.50
18047;DHT22;9148;51.454;13.862;2023-09-12T12:20:30;40.80;30.30
18047;DHT22;9148;51.454;13.862;2023-09-12T12:22:56;40.90;30.00
18047;DHT22;9148;51.454;13.862;2023-09-12T12:25:22;41.00;29.90
18047;DHT22;9148;51.454;13.862;2023-09-12T12:27:47;41.20;29.90
18047;DHT22;9148;51.454;13.862;2023-09-12T12:30:13;41.30;29.80
18047;DHT22;9148;51.454;13.862;2023-09-12T12:32:43;41.50;29.60
18047;DHT22;9148;51.454;13.862;2023-09-12T12:35:22;41.60;29.20
18047;DHT22;9148;51.454;13.862;2023-09-12T12:37:49;41.60;29.40
18047;DHT22;9148;51.454;13.862;2023-09-12T12:40:16;41.70;29.30
18047;DHT22;9148;51.454;13.862;2023-09-12T12:42:45;41.70;29.20
18047;DHT22;9148;51.454;13.862;2023-09-12T12:45:24;41.70;29.20
18047;DHT22;9148;51.454;13.862;2023-09-12T12:48:00;41.50;29.20
18047;DHT22;9148;51.454;13.862;2023-09-12T12:50:26;41.30;29.00
18047;DHT22;9148;51.454;13.862;2023-09-12T12:52:52;41.10;29.20
18047;DHT22;9148;51.454;13.862;2023-09-12T12:55:20;41.10;29.20
18047;DHT22;9148;51.454;13.862;2023-09-12T12:57:48;41.00;28.80
18047;DHT22;9148;51.454;13.862;2023-09-12T13:00:15;40.80;28.90
18047;DHT22;9148;51.454;13.862;2023-09-12T13:02:42;40.60;28.90
18047;DHT22;9148;51.454;13.862;2023-09-12T13:05:25;40.40;29.30
18047;DHT22;9148;51.454;13.862;2023-09-12T13:07:52;40.60;29.60
18047;DHT22;9148;51.454;13.862;2023-09-12T13:10:19;40.60;29.70
18047;DHT22;9148;51.454;13.862;2023-09-12T13:12:45;40.80;29.70
18047;DHT22;9148;51.454;13.862;2023-09-12T13:15:14;40.80;29.60
18047;DHT22;9148;51.454;13.862;2023-09-12T13:17:43;40.80;29.60
18047;DHT22;9148;51.454;13.862;2023-09-12T13:20:09;40.70;29.40
18047;DHT22;9148;51.454;13.862;2023-09-12T13:22:36;40.60;29.50
18047;DHT22;9148;51.454;13.862;2023-09-12T13:25:02;40.40;29.70
18047;DHT22;9148;51.454;13.862;2023-09-12T13:27:28;40.20;29.60
18047;DHT22;9148;51.454;13.862;2023-09-12T13:29:54;40.00;29.90
18047;DHT22;9148;51.454;13.862;2023-09-12T13:32:20;39.90;30.00
18047;DHT22;9148;51.454;13.862;2023-09-12T13:34:45;39.90;29.90
18047;DHT22;9148;51.454;13.862;2023-09-12T13:37:11;39.90;30.00
18047;DHT22;9148;51.454;13.862;2023-09-12T13:39:37;39.90;30.00
18047;DHT22;9148;51.454;13.862;2023-09-12T13:42:03;39.90;29.90
18047;DHT22;9148;51.454;13.862;2023-09-12T13:44:30;39.70;29.80
18047;DHT22;9148;51.454;13.862;2023-09-12T13:46:56;39.60;30.00
18047;DHT22;9148;51.454;13.862;2023-09-12T13:49:22;39.50;30.10
18047;DHT22;9148;51.454;13.862;2023-09-12T13:51:47;39.40;30.00
18047;DHT22;9148;51.454;13.862;2023-09-12T13:54:13;39.40;29.90
18047;DHT22;9148;51.454;13.862;2023-09-12T13:56:42;39.40;29.70
18047;DHT22;9148;51.454;13.862;2023-09-12T13:59:09;39.30;29.70
18047;DHT22;9148;51.454;13.862;2023-09-12T14:01:35;39.30;29.90
18047;DHT22;9148;51.454;13.862;2023-09-12T14:04:02;39.20;30.00
18047;DHT22;9148;51.454;13.862;2023-09-12T14:06:32;39.10;30.10
18047;DHT22;9148;51.454;13.862;2023-09-12T14:08:59;39.00;30.60
18047;DHT22;9148;51.454;13.862;2023-09-12T14:11:24;39.10;31.00
18047;DHT22;9148;51.454;13.862;2023-09-12T14:13:50;39.10;30.90
18047;DHT22;9148;51.454;13.862;2023-09-12T14:16:16;39.20;31.10
18047;DHT22;9148;51.454;13.862;2023-09-12T14:18:41;39.20;31.00
18047;DHT22;9148;51.454;13.862;2023-09-12T14:21:07;39.20;30.90
18047;DHT22;9148;51.454;13.862;2023-09-12T14:23:33;39.10;30.70
18047;DHT22;9148;51.454;13.862;2023-09-12T14:25:58;39.00;30.70
18047;DHT22;9148;51.454;13.862;2023-09-12T14:28:24;39.00;31.00
18047;DHT22;9148;51.454;13.862;2023-09-12T14:30:50;38.90;31.10
18047;DHT22;9148;51.454;13.862;2023-09-12T14:33:16;38.90;31.10
18047;DHT22;9148;51.454;13.862;2023-09-12T14:35:44;38.80;31.10
18047;DHT22;9148;51.454;13.862;2023-09-12T14:38:10;38.80;31.40
18047;DHT22;9148;51.454;13.862;2023-09-12T14:40:35;38.70;31.60
18047;DHT22;9148;51.454;13.862;2023-09-12T14:43:01;38.70;31.70
18047;DHT22;9148;51.454;13.862;2023-09-12T14:45:28;38.50;32.00
18047;DHT22;9148;51.454;13.862;2023-09-12T14:47:53;38.30;32.10
18047;DHT22;9148;51.454;13.862;2023-09-12T14:50:21;38.10;32.90
18047;DHT22;9148;51.454;13.862;2023-09-12T14:52:55;38.00;32.40
18047;DHT22;9148;51.454;13.862;2023-09-12T14:55:21;37.80;32.60
18047;DHT22;9148;51.454;13.862;2023-09-12T14:57:47;37.60;32.80
18047;DHT22;9148;51.454;13.862;2023-09-12T15:00:14;37.40;32.90
18047;DHT22;9148;51.454;13.862;2023-09-12T15:02:40;37.30;33.00
18047;DHT22;9148;51.454;13.862;2023-09-12T15:05:07;37.20;32.90
18047;DHT22;9148;51.454;13.862;2023-09-12T15:07:33;37.20;33.10
18047;DHT22;9148;51.454;13.862;2023-09-12T15:10:00;37.10;33.30
18047;DHT22;9148;51.454;13.862;2023-09-12T15:12:26;37.00;33.40
18047;DHT22;9148;51.454;13.862;2023-09-12T15:14:52;36.80;33.30
18047;DHT22;9148;51.454;13.862;2023-09-12T15:17:18;36.60;33.50
18047;DHT22;9148;51.454;13.862;2023-09-12T15:19:44;36.40;33.60
18047;DHT22;9148;51.454;13.862;2023-09-12T15:22:10;36.30;34.00
18047;DHT22;9148;51.454;13.862;2023-09-12T15:24:35;36.10;34.40
18047;DHT22;9148;51.454;13.862;2023-09-12T15:27:01;36.00;34.50
18047;DHT22;9148;51.454;13.862;2023-09-12T15:29:27;35.70;34.70
18047;DHT22;9148;51.454;13.862;2023-09-12T15:31:53;35.60;35.00
18047;DHT22;9148;51.454;13.862;2023-09-12T15:34:19;35.40;35.00
18047;DHT22;9148;51.454;13.862;2023-09-12T15:36:46;35.20;35.30
18047;DHT22;9148;51.454;13.862;2023-09-12T15:39:13;34.90;35.50
18047;DHT22;9148;51.454;13.862;2023-09-12T15:41:39;34.80;36.10
18047;DHT22;9148;51.454;13.862;2023-09-12T15:44:06;34.60;36.40
18047;DHT22;9148;51.454;13.862;2023-09-12T15:46:32;34.40;36.60